Historyczne dane pomiarowe

Dodano dane terminowe – wersja testowa.

Dane z okresu 1951-2019

Wersja bazy: 1.34 [2019-03-16, lista zmian], aktualizacja planowana na 2019-04-15

Dane meteo z obszaru Polski uzyskane na podstawie danych udostępnionych przez Instytut Meteorologii i Gospodarki Wodnej – Państwowy Instytut Badawczy.

 

Wybierz Datę:    

       

TemperaturaWilgotnośćWiatrCiśnienieOpadyŚniegCzas trwania zjawisk
 Stacja t tx tn tng RH VA  wxwx mslp ppp RRR   cm mm wxwxwxwxwxwxwx
1994-08-14 14.6 18.6 10.6 9.1 69.0- 3.3 3.7---- 0.0------------
1994-08-13 16.6 21.5 14.2 13.1 84.8- 7.0 5.3---- 0.7------------
1994-08-12 16.9 21.2 14.7 10.1 87.8- 7.7 2.3---- 0.9------------
1994-08-11 18.4 23.4 16.2 15.7 84.3- 7.7 2.0---- 21.7------------
1994-08-10 19.8 26.5 13.7 12.2 72.5- 2.0 1.7---- 0.0------------
1994-08-09 17.9 23.4 16.7 15.7 93.0- 6.0 2.7---- 14.2------------
1994-08-08 21.7 26.4 17.9 17.3 83.8- 5.3 1.7---- 12.4------------
1994-08-07 24.0 30.4 18.2 13.9 69.3- 5.0 1.0---- 6.7------------
1994-08-06 25.4 33.6 17.7 11.6 52.5- 1.3 2.3---- 0.0------------
1994-08-05 25.3 30.8 17.7 15.2 57.5- 1.3 2.0---- 0.0------------
1994-08-04 22.6 28.4 16.9 12.1 66.5- 3.0 2.0---- 16.2------------
1994-08-03 25.8 30.8 19.6 17.8 69.8- 3.3 3.0---- 0.0------------
1994-08-02 25.7 32.0 20.0 16.4 66.3- 7.0 1.3---- 0.0------------
1994-08-01 27.6 35.5 21.2 14.3 57.0- 3.3 1.3---- 3.7------------
1994-07-31 28.7 35.2 21.4 14.7 51.5- 0.0 2.7---- 0.0------------
1994-07-30 28.1 35.5 19.6 12.6 51.0- 1.0 1.3---- 0.0------------
1994-07-29 26.9 34.2 19.8 13.1 51.3- 1.3 1.3---- 0.0------------
1994-07-28 27.0 33.5 18.2 10.8 48.0- 2.7 2.3---- 0.0------------
1994-07-27 26.0 34.2 19.3 11.6 49.8- 3.0 1.7---- 0.0------------
1994-07-26 26.2 33.4 18.2 10.6 49.3- 1.0 1.3---- 0.0------------
1994-07-25 25.3 32.0 16.2 8.6 45.5- 0.0 1.7---- 0.0------------
1994-07-24 23.9 30.8 16.3 9.4 53.5- 1.3 2.3---- 0.0------------
1994-07-23 23.7 28.9 15.7 8.6 56.0- 2.7 1.7---- 0.0------------
1994-07-22 22.7 28.7 14.7 8.2 52.3- 0.3 3.0---- 0.0------------
1994-07-21 21.4 27.3 14.3 7.5 56.0- 0.0 2.3---- 0.0------------
1994-07-20 18.8 24.6 10.4 5.5 60.5- 1.7 3.7---- 0.0------------
1994-07-19 19.6 24.2 14.5 11.8 67.5- 3.7 2.7---- 0.0------------
1994-07-18 21.0 26.9 15.3 11.6 76.3- 4.7 2.3---- 0.0------------
1994-07-17 21.9 28.3 16.2 13.1 83.3- 5.7 1.3---- 0.5------------
1994-07-16 23.4 30.6 16.9 12.3 72.8- 4.3 1.0---- 0.2------------
1994-07-15 23.9 28.5 17.5 12.1 64.8- 4.0 3.0---- 0.0------------
1994-07-14 23.3 29.5 16.3 9.6 68.8- 5.3 2.3---- 0.9------------
1994-07-13 23.6 28.1 17.2 11.6 57.8- 4.3 3.0---- 0.0------------
1994-07-12 21.6 26.3 15.7 14.1 73.8- 3.0 3.0---- 0.0------------
1994-07-11 20.1 25.5 13.3 9.1 75.3- 5.3 3.0---- 0.0------------
1994-07-10 16.9 23.0 12.7 12.0 77.0- 5.3 2.7---- 0.0------------
1994-07-09 13.4 16.4 11.6 10.6 93.5- 7.3 3.0---- 21.7------------
1994-07-08 14.6 19.7 12.9 12.1 80.5- 6.3 2.7---- 13.9------------
1994-07-07 21.3 27.4 13.8 10.5 62.5- 5.3 2.7---- 7.7------------
1994-07-06 20.6 26.5 12.9 6.7 69.0- 1.7 1.7---- 0.0------------
1994-07-05 20.6 27.5 15.7 10.4 66.0- 6.3 1.7---- 0.0------------
1994-07-04 23.7 30.2 14.3 7.1 55.3- 1.3 1.7---- 0.0------------
1994-07-03 21.9 28.1 12.2 5.5 53.3- 1.0 1.7---- 0.0------------
1994-07-02 19.9 25.0 11.3 4.7 64.0- 0.0 2.0---- 0.0------------
1994-07-01 18.6 24.3 11.2 7.2 65.5- 2.0 3.0---- 0.0------------
1994-06-30 21.0 29.8 19.8 17.8 83.8- 5.7 4.3---- 0.3------------
1994-06-29 26.9 32.2 20.3 14.5 66.0- 2.0 2.0---- 0.0------------
1994-06-28 25.6 31.0 20.8 16.2 68.3- 3.0 3.0---- 0.0------------
1994-06-27 26.1 32.6 18.8 13.7 68.8- 1.7 1.7---- 0.0------------
1994-06-26 22.1 30.4 11.9 8.1 65.0- 2.0 3.7---- 0.0------------
1994-06-25 17.6 23.8 7.5 4.4 60.0- 0.0 2.3---- 0.0------------
1994-06-24 14.4 20.2 6.7 3.3 64.8- 1.3 4.3---- 0.0------------
1994-06-23 17.1 20.2 14.2 12.6 61.5- 2.0 6.0---- 0.0------------
1994-06-22 18.8 25.7 11.2 5.2 71.3- 5.7 4.0---- 0.0------------
1994-06-21 15.6 21.3 8.3 1.5 71.0- 3.7 2.0---- 0.0------------
1994-06-20 16.1 20.8 11.9 7.5 77.8- 5.3 3.7---- 0.0------------
1994-06-19 16.8 24.4 11.3 10.6 72.8- 5.0 3.7---- 0.0------------
1994-06-18 11.7 18.8 3.8 -0.6 79.8- 7.3 3.0---- 7.3------------
1994-06-17 11.0 14.6 7.7 6.7 75.3- 4.7 4.7---- 0.0------------
1994-06-16 12.1 15.4 7.2 3.6 80.3- 7.3 4.0---- 3.1------------
337.5 ms

 

Źródłem pochodzenia danych jest Instytut Meteorologii i Gospodarki Wodnej – Państwowy Instytut Badawczy. Dane Instytutu Meteorologii i Gospodarki Wodnej – Państwowego Instytutu Badawczego zostały przetworzone.

Dane źródłowe można odnaleźć na stronie https://dane.imgw.pl